TimeEDT,TemperatureF,Dew PointF,Humidity,Sea Level PressureIn,VisibilityMPH,Wind Direction,Wind SpeedMPH,Gust SpeedMPH,PrecipitationIn,Events,Conditions,WindDirDegrees,DateUTC
12:15 AM,58.3,55.6,91,29.98,10.0,Calm,Calm,-,N/A,,Mostly Cloudy,0,2013-09-25 04:15:00
12:35 AM,58.8,55.4,88,29.97,10.0,Calm,Calm,-,N/A,,Scattered Clouds,0,2013-09-25 04:35:00
12:55 AM,57.7,55.2,91,29.97,10.0,Calm,Calm,-,N/A,,Scattered Clouds,0,2013-09-25 04:55:00
1:15 AM,56.8,54.9,93,29.97,10.0,Calm,Calm,-,N/A,,Clear,0,2013-09-25 05:15:00
1:35 AM,56.1,54.3,94,29.97,7.0,Calm,Calm,-,N/A,,Clear,0,2013-09-25 05:35:00
1:55 AM,55.9,54.1,94,29.96,7.0,Calm,Calm,-,N/A,,Clear,0,2013-09-25 05:55:00
2:15 AM,54.9,53.2,94,29.96,3.0,Calm,Calm,-,N/A,,Clear,0,2013-09-25 06:15:00
2:35 AM,53.8,52.3,95,29.96,1.5,Calm,Calm,-,N/A,,Mist,0,2013-09-25 06:35:00
2:55 AM,53.8,52.7,96,29.96,5.0,Calm,Calm,-,N/A,,Clear,0,2013-09-25 06:55:00
3:15 AM,53.8,52.5,95,29.94,0.8,Calm,Calm,-,N/A,,Mist,0,2013-09-25 07:15:00
3:35 AM,53.6,52.3,95,29.95,2.5,Calm,Calm,-,N/A,,Clear,0,2013-09-25 07:35:00
3:55 AM,54.5,53.2,96,29.95,0.8,Calm,Calm,-,N/A,,Mist,0,2013-09-25 07:55:00
4:15 AM,54.1,53.1,96,29.95,2.0,Calm,Calm,-,N/A,,Clear,0,2013-09-25 08:15:00
4:35 AM,53.1,52.0,96,29.94,7.0,Calm,Calm,-,N/A,,Clear,0,2013-09-25 08:35:00
4:55 AM,53.8,52.7,96,29.94,5.0,Calm,Calm,-,N/A,,Clear,0,2013-09-25 08:55:00
5:15 AM,53.6,52.2,95,29.95,4.0,Calm,Calm,-,N/A,,Clear,0,2013-09-25 09:15:00
5:35 AM,53.1,51.8,95,29.94,1.5,Calm,Calm,-,N/A,,Mist,0,2013-09-25 09:35:00
5:55 AM,52.3,51.1,95,29.94,0.5,Calm,Calm,-,N/A,Fog,Fog,0,2013-09-25 09:55:00
6:15 AM,51.4,50.4,96,29.94,1.2,Calm,Calm,-,N/A,,Mist,0,2013-09-25 10:15:00
6:35 AM,50.9,49.8,96,29.94,3.0,Calm,Calm,-,N/A,,Clear,0,2013-09-25 10:35:00
6:55 AM,50.2,49.1,96,29.93,5.0,Calm,Calm,-,N/A,,Clear,0,2013-09-25 10:55:00
7:15 AM,50.0,48.7,95,29.93,5.0,Calm,Calm,-,N/A,,Clear,0,2013-09-25 11:15:00
7:35 AM,50.0,48.9,96,29.94,2.5,Calm,Calm,-,N/A,,Clear,0,2013-09-25 11:35:00
7:55 AM,53.4,52.2,95,29.96,4.0,Calm,Calm,-,N/A,,Mostly Cloudy,0,2013-09-25 11:55:00
8:15 AM,55.4,54.3,96,29.97,4.0,Calm,Calm,-,N/A,,Overcast,0,2013-09-25 12:15:00
8:35 AM,56.3,55.2,96,29.97,4.0,Calm,Calm,-,N/A,,Mostly Cloudy,0,2013-09-25 12:35:00
8:55 AM,57.4,56.1,96,29.97,5.0,Calm,Calm,-,N/A,,Scattered Clouds,0,2013-09-25 12:55:00
9:15 AM,58.5,56.8,94,29.97,5.0,Calm,Calm,-,N/A,,Clear,0,2013-09-25 13:15:00
9:35 AM,60.1,57.4,91,29.97,7.0,Calm,Calm,-,N/A,,Clear,0,2013-09-25 13:35:00
9:55 AM,62.8,58.5,86,29.96,7.0,Calm,Calm,-,N/A,,Clear,0,2013-09-25 13:55:00
10:15 AM,64.8,58.1,79,29.96,10.0,Calm,Calm,-,N/A,,Clear,0,2013-09-25 14:15:00
10:35 AM,67.3,57.4,70,29.96,10.0,Calm,Calm,-,N/A,,Clear,0,2013-09-25 14:35:00
10:55 AM,68.5,55.9,64,29.95,10.0,Calm,Calm,-,N/A,,Scattered Clouds,0,2013-09-25 14:55:00
11:15 AM,70.2,56.1,61,29.95,10.0,Calm,Calm,-,N/A,,Clear,0,2013-09-25 15:15:00
11:35 AM,70.5,54.7,57,29.95,10.0,NE,3.5,-,N/A,,Scattered Clouds,50,2013-09-25 15:35:00
11:55 AM,73.6,55.2,53,29.94,10.0,NNE,5.8,-,N/A,,Scattered Clouds,30,2013-09-25 15:55:00
12:15 PM,72.9,53.4,50,29.94,10.0,ENE,4.6,-,N/A,,Scattered Clouds,60,2013-09-25 16:15:00
12:35 PM,71.4,53.1,52,29.94,10.0,ENE,5.8,-,N/A,,Scattered Clouds,70,2013-09-25 16:35:00
12:55 PM,74.1,53.4,48,29.94,10.0,Calm,Calm,-,N/A,,Scattered Clouds,0,2013-09-25 16:55:00
1:15 PM,72.7,53.4,51,29.94,10.0,NE,5.8,-,N/A,,Scattered Clouds,50,2013-09-25 17:15:00
1:35 PM,72.5,53.2,51,29.94,10.0,Calm,Calm,-,N/A,,Clear,0,2013-09-25 17:35:00
2:15 PM,71.8,54.0,53,29.93,10.0,NNE,4.6,-,N/A,,Overcast,20,2013-09-25 18:15:00
2:35 PM,72.0,54.5,54,29.92,10.0,NNE,4.6,-,N/A,,Mostly Cloudy,30,2013-09-25 18:35:00
2:55 PM,71.6,54.5,55,29.91,10.0,North,4.6,-,N/A,,Scattered Clouds,350,2013-09-25 18:55:00
3:15 PM,71.2,54.5,55,29.91,10.0,North,4.6,-,N/A,,Scattered Clouds,10,2013-09-25 19:15:00
3:35 PM,70.7,55.4,58,29.91,10.0,NE,3.5,-,N/A,,Scattered Clouds,40,2013-09-25 19:35:00
3:55 PM,69.8,56.1,62,29.90,10.0,NE,3.5,-,N/A,,Clear,40,2013-09-25 19:55:00
4:15 PM,69.8,55.6,61,29.89,10.0,Calm,Calm,-,N/A,,Scattered Clouds,0,2013-09-25 20:15:00
4:55 PM,70.3,57.6,64,29.89,10.0,ENE,3.5,-,N/A,,Mostly Cloudy,60,2013-09-25 20:55:00
5:15 PM,70.2,56.7,62,29.89,10.0,Calm,Calm,-,N/A,,Mostly Cloudy,0,2013-09-25 21:15:00
5:35 PM,69.8,55.9,61,29.89,10.0,Calm,Calm,-,N/A,,Scattered Clouds,0,2013-09-25 21:35:00
5:55 PM,69.4,57.4,65,29.90,10.0,Calm,Calm,-,N/A,,Clear,0,2013-09-25 21:55:00
6:15 PM,68.9,57.6,67,29.90,10.0,Calm,Calm,-,N/A,,Scattered Clouds,0,2013-09-25 22:15:00
6:35 PM,68.0,58.1,71,29.90,10.0,Calm,Calm,-,N/A,,Scattered Clouds,0,2013-09-25 22:35:00
6:55 PM,67.3,58.1,72,29.90,10.0,Calm,Calm,-,N/A,,Overcast,0,2013-09-25 22:55:00
7:15 PM,66.7,58.3,74,29.91,10.0,North,3.5,-,N/A,,Overcast,360,2013-09-25 23:15:00
7:35 PM,66.2,58.5,76,29.91,10.0,Calm,Calm,-,N/A,,Overcast,0,2013-09-25 23:35:00
7:55 PM,65.7,58.1,77,29.91,10.0,Calm,Calm,-,N/A,,Overcast,0,2013-09-25 23:55:00
8:15 PM,65.3,57.7,76,29.91,10.0,Calm,Calm,-,N/A,,Mostly Cloudy,0,2013-09-26 00:15:00
8:35 PM,64.8,58.5,80,29.91,10.0,Calm,Calm,-,N/A,,Mostly Cloudy,0,2013-09-26 00:35:00
8:55 PM,63.7,58.1,82,29.91,10.0,Calm,Calm,-,N/A,,Overcast,0,2013-09-26 00:55:00
9:15 PM,63.5,57.6,81,29.91,10.0,Calm,Calm,-,N/A,,Overcast,0,2013-09-26 01:15:00
9:35 PM,63.3,57.0,80,29.91,10.0,Calm,Calm,-,N/A,,Overcast,0,2013-09-26 01:35:00
9:55 PM,62.8,57.4,82,29.91,10.0,Calm,Calm,-,N/A,,Overcast,0,2013-09-26 01:55:00
10:15 PM,62.6,59.2,89,29.91,10.0,Calm,Calm,-,N/A,,Overcast,0,2013-09-26 02:15:00
10:35 PM,62.6,58.6,87,29.91,10.0,Calm,Calm,-,N/A,,Overcast,0,2013-09-26 02:35:00
10:55 PM,62.8,58.1,85,29.91,10.0,Calm,Calm,-,N/A,,Overcast,0,2013-09-26 02:55:00
11:15 PM,62.8,58.1,85,29.91,10.0,Calm,Calm,-,N/A,,Mostly Cloudy,0,2013-09-26 03:15:00
11:35 PM,63.0,57.2,81,29.91,10.0,Calm,Calm,-,N/A,,Mostly Cloudy,0,2013-09-26 03:35:00
11:55 PM,62.6,56.7,81,29.92,10.0,Calm,Calm,-,N/A,,Mostly Cloudy,0,2013-09-26 03:55:00